createdAt,value
2022-11-09T00:00:48.981Z,11.53
2022-11-09T00:03:15.733Z,8.50
2022-11-09T00:05:42.525Z,9.60
2022-11-09T00:08:10.883Z,9.17
2022-11-09T00:10:38.326Z,10.67
2022-11-09T00:13:05.344Z,10.50
2022-11-09T00:15:31.966Z,15.47
2022-11-09T00:18:01.688Z,10.67
2022-11-09T00:20:28.317Z,15.33
2022-11-09T00:22:55.027Z,11.40
2022-11-09T00:25:21.708Z,13.33
2022-11-09T00:27:48.303Z,13.10
2022-11-09T00:30:15.437Z,11.63
2022-11-09T00:32:42.101Z,15.60
2022-11-09T00:35:09.206Z,12.67
2022-11-09T00:37:35.893Z,10.23
2022-11-09T00:40:02.607Z,14.00
2022-11-09T00:42:29.456Z,13.17
2022-11-09T00:44:56.084Z,15.73
2022-11-09T00:47:22.874Z,16.97
2022-11-09T00:49:49.512Z,15.17
2022-11-09T00:52:16.187Z,12.20
2022-11-09T00:54:42.852Z,14.67
2022-11-09T00:57:12.861Z,12.50
2022-11-09T00:59:42.767Z,13.97
2022-11-09T01:02:09.374Z,17.97
2022-11-09T01:04:36.068Z,15.20
2022-11-09T01:07:02.783Z,14.67
2022-11-09T01:09:29.703Z,16.70
2022-11-09T01:11:56.262Z,17.07
2022-11-09T01:14:23.454Z,12.37
2022-11-09T01:16:50.705Z,14.27
2022-11-09T01:19:17.962Z,15.60
2022-11-09T01:21:45.505Z,15.80
2022-11-09T01:24:12.152Z,14.77
2022-11-09T01:26:38.764Z,13.70
2022-11-09T01:29:05.382Z,16.63
2022-11-09T01:31:33.313Z,15.47
2022-11-09T01:34:01.971Z,16.03
2022-11-09T01:36:28.558Z,15.50
2022-11-09T01:38:55.189Z,19.43
2022-11-09T01:41:24.742Z,15.27
2022-11-09T01:44:08.252Z,13.90
2022-11-09T01:46:45.447Z,18.33
2022-11-09T01:49:23.223Z,13.00
2022-11-09T01:52:08.822Z,15.93
2022-11-09T01:54:44.145Z,14.30
2022-11-09T01:57:14.922Z,14.83
2022-11-09T01:59:46.735Z,11.90
2022-11-09T02:02:13.660Z,14.03
2022-11-09T02:04:50.192Z,16.13
2022-11-09T02:07:17.266Z,18.20
2022-11-09T02:10:04.021Z,21.97
2022-11-09T02:12:34.394Z,13.93
2022-11-09T02:15:04.738Z,19.03
2022-11-09T02:17:32.566Z,21.83
2022-11-09T02:19:59.344Z,24.40
2022-11-09T02:22:27.422Z,22.83
2022-11-09T02:24:56.317Z,25.63
2022-11-09T02:27:24.170Z,27.83
2022-11-09T02:29:52.241Z,15.27
2022-11-09T02:32:29.173Z,16.50
2022-11-09T02:34:58.110Z,23.87
2022-11-09T02:37:37.820Z,28.43
2022-11-09T02:40:09.969Z,16.03
2022-11-09T02:42:36.647Z,18.20
2022-11-09T02:45:03.465Z,13.73
2022-11-09T02:47:30.168Z,12.10
2022-11-09T02:49:58.034Z,12.13
2022-11-09T02:52:26.388Z,10.37
2022-11-09T02:54:53.580Z,9.17
2022-11-09T02:57:20.295Z,8.97
2022-11-09T02:59:47.136Z,10.50
2022-11-09T03:02:14.283Z,10.37
2022-11-09T03:04:40.935Z,15.40
2022-11-09T03:07:08.638Z,8.93
2022-11-09T03:09:36.108Z,8.40
2022-11-09T03:12:22.897Z,7.67
2022-11-09T03:14:49.609Z,8.10
2022-11-09T03:17:17.548Z,8.10
2022-11-09T03:19:45.152Z,6.90
2022-11-09T03:22:12.421Z,6.63
2022-11-09T03:24:39.132Z,8.03
2022-11-09T03:27:05.984Z,7.83
2022-11-09T03:29:33.479Z,6.60
2022-11-09T03:32:00.247Z,7.70
2022-11-09T03:34:26.982Z,10.13
2022-11-09T03:36:53.843Z,7.80
2022-11-09T03:39:21.821Z,6.80
2022-11-09T03:41:48.478Z,7.00
2022-11-09T03:44:15.177Z,7.50
2022-11-09T03:46:41.874Z,6.97
2022-11-09T03:49:08.514Z,9.97
2022-11-09T03:51:35.175Z,14.17
2022-11-09T03:54:01.764Z,8.73
2022-11-09T03:56:28.394Z,8.30
2022-11-09T03:58:54.996Z,7.17
2022-11-09T04:01:21.950Z,5.50
2022-11-09T04:03:48.635Z,11.03
2022-11-09T04:06:15.272Z,6.87
2022-11-09T04:08:44.659Z,5.80
2022-11-09T04:11:13.636Z,7.33
2022-11-09T04:13:40.253Z,7.00
2022-11-09T04:16:07.087Z,10.43
2022-11-09T04:18:33.786Z,9.90
2022-11-09T04:21:00.390Z,14.00
2022-11-09T04:23:27.205Z,13.30
2022-11-09T04:25:53.870Z,12.20
2022-11-09T04:28:20.512Z,11.17
2022-11-09T04:30:47.195Z,12.47
2022-11-09T04:33:13.824Z,10.50
2022-11-09T04:35:40.480Z,9.10
2022-11-09T04:38:10.320Z,8.93
2022-11-09T04:40:37.296Z,11.77
2022-11-09T04:43:06.125Z,11.40
2022-11-09T04:45:34.471Z,9.33
2022-11-09T04:48:02.891Z,9.20
2022-11-09T04:50:29.888Z,9.70
2022-11-09T04:53:07.772Z,8.63
2022-11-09T04:55:34.975Z,10.53
2022-11-09T04:58:01.774Z,10.70
2022-11-09T05:00:28.419Z,12.17
2022-11-09T05:02:55.173Z,9.00
2022-11-09T05:05:21.864Z,10.93
2022-11-09T05:07:48.507Z,7.57
2022-11-09T05:10:15.551Z,8.00
2022-11-09T05:12:45.897Z,9.47
2022-11-09T05:15:12.845Z,7.63
2022-11-09T05:17:39.421Z,11.20
2022-11-09T05:20:06.505Z,11.60
2022-11-09T05:22:51.824Z,10.43
2022-11-09T05:25:18.445Z,12.37
2022-11-09T05:27:45.026Z,14.60
2022-11-09T05:30:12.127Z,10.60
2022-11-09T05:32:39.486Z,12.40
2022-11-09T05:35:06.575Z,13.20
2022-11-09T05:37:33.172Z,12.50
2022-11-09T05:39:59.868Z,9.63
2022-11-09T05:42:26.482Z,15.13
2022-11-09T05:44:53.113Z,12.53
2022-11-09T05:47:20.199Z,9.27
2022-11-09T05:49:46.868Z,11.80
2022-11-09T05:52:13.574Z,12.77
2022-11-09T05:54:40.313Z,10.80
2022-11-09T05:57:07.198Z,11.67
2022-11-09T05:59:33.864Z,10.20
2022-11-09T06:02:00.575Z,10.83
2022-11-09T06:04:27.268Z,8.10
2022-11-09T06:06:54.008Z,12.10
2022-11-09T06:09:20.706Z,14.37
2022-11-09T06:11:47.362Z,9.90
2022-11-09T06:14:14.067Z,8.93
2022-11-09T06:16:40.684Z,9.67
2022-11-09T06:19:07.469Z,14.63
2022-11-09T06:21:34.158Z,10.80
2022-11-09T06:24:00.737Z,10.87
2022-11-09T06:26:27.475Z,12.73
2022-11-09T06:28:54.053Z,16.67
2022-11-09T06:31:20.735Z,21.10
2022-11-09T06:33:47.322Z,14.63
2022-11-09T06:36:13.978Z,10.37
2022-11-09T06:38:40.781Z,18.70
2022-11-09T06:41:07.506Z,29.00
2022-11-09T06:43:34.102Z,26.13
2022-11-09T06:46:03.574Z,22.50
2022-11-09T06:48:30.279Z,18.03
2022-11-09T06:51:01.489Z,13.97
2022-11-09T06:53:29.905Z,11.53
2022-11-09T06:56:00.850Z,10.13
2022-11-09T06:58:28.273Z,12.60
2022-11-09T07:00:55.608Z,10.80
2022-11-09T07:03:23.532Z,16.17
2022-11-09T07:05:52.220Z,11.97
2022-11-09T07:08:19.343Z,10.67
2022-11-09T07:10:46.223Z,10.90
2022-11-09T07:13:13.212Z,13.10
2022-11-09T07:15:40.714Z,10.80
2022-11-09T07:18:11.953Z,13.47
2022-11-09T07:20:38.614Z,12.17
2022-11-09T07:23:05.323Z,11.40
2022-11-09T07:25:32.220Z,9.47
2022-11-09T07:28:07.565Z,9.57
2022-11-09T07:30:36.528Z,11.60
2022-11-09T07:33:11.270Z,10.80
2022-11-09T07:35:38.236Z,9.20
2022-11-09T07:38:04.929Z,10.10
2022-11-09T07:40:31.598Z,10.77
2022-11-09T07:42:59.662Z,10.07
2022-11-09T07:45:27.141Z,9.53
2022-11-09T07:48:01.324Z,8.97
2022-11-09T07:50:29.665Z,7.97
2022-11-09T07:52:57.175Z,8.63
2022-11-09T07:55:24.495Z,10.07
2022-11-09T07:58:02.001Z,9.30
2022-11-09T08:00:30.961Z,7.83
2022-11-09T08:02:57.727Z,8.10
2022-11-09T08:05:24.510Z,11.37
2022-11-09T08:07:56.230Z,7.67
2022-11-09T08:10:23.713Z,7.73
2022-11-09T08:12:55.683Z,12.13
2022-11-09T08:15:22.305Z,8.73
2022-11-09T08:17:48.940Z,7.60
2022-11-09T08:20:16.498Z,8.60
2022-11-09T08:22:44.790Z,8.77
2022-11-09T08:25:12.611Z,7.43
2022-11-09T08:27:42.671Z,10.00
2022-11-09T08:30:15.759Z,6.30
2022-11-09T08:32:43.496Z,8.00
2022-11-09T08:35:13.504Z,8.00
2022-11-09T08:37:40.159Z,10.70
2022-11-09T08:40:07.425Z,8.23
2022-11-09T08:42:34.174Z,8.63
2022-11-09T08:45:01.173Z,14.60
2022-11-09T08:47:29.126Z,8.00
2022-11-09T08:49:56.093Z,8.80
2022-11-09T08:52:23.460Z,9.17
2022-11-09T08:54:50.117Z,9.00
2022-11-09T08:57:20.346Z,8.60
2022-11-09T08:59:47.205Z,8.53
2022-11-09T09:02:14.723Z,8.20
2022-11-09T09:04:41.841Z,8.67
2022-11-09T09:07:10.526Z,8.17
2022-11-09T09:09:38.250Z,8.97
2022-11-09T09:12:09.279Z,8.73
2022-11-09T09:14:36.511Z,9.00
2022-11-09T09:17:03.152Z,9.67
2022-11-09T09:19:29.886Z,11.97
2022-11-09T09:21:56.855Z,7.67
2022-11-09T09:24:23.492Z,9.87
2022-11-09T09:26:50.296Z,9.27
2022-11-09T09:29:17.118Z,12.90
2022-11-09T09:31:43.684Z,10.30
2022-11-09T09:34:11.850Z,11.20
2022-11-09T09:36:42.064Z,10.77
2022-11-09T09:39:11.505Z,9.67
2022-11-09T09:41:41.773Z,9.97
2022-11-09T09:44:20.678Z,8.67
2022-11-09T09:47:03.302Z,8.87
2022-11-09T09:49:34.848Z,9.87
2022-11-09T09:52:08.038Z,8.53
2022-11-09T09:54:52.858Z,12.70
2022-11-09T09:57:22.684Z,12.20
2022-11-09T09:59:56.545Z,13.00
2022-11-09T10:02:24.791Z,9.50
2022-11-09T10:04:55.179Z,8.83
2022-11-09T10:07:28.675Z,9.77
2022-11-09T10:10:12.432Z,8.20
2022-11-09T10:13:09.459Z,9.63
2022-11-09T10:16:00.696Z,8.83
2022-11-09T10:19:01.390Z,10.50
2022-11-09T10:21:45.735Z,7.70
2022-11-09T10:24:30.531Z,9.07
2022-11-09T10:27:00.071Z,8.40
2022-11-09T10:29:45.168Z,8.40
2022-11-09T10:32:20.692Z,9.17
2022-11-09T10:35:00.940Z,7.73
2022-11-09T10:37:46.411Z,8.50
2022-11-09T10:40:24.661Z,9.10
2022-11-09T10:43:12.062Z,9.60
2022-11-09T10:46:06.253Z,9.50
2022-11-09T10:48:54.201Z,10.20
2022-11-09T10:51:47.821Z,9.20
2022-11-09T10:54:37.882Z,8.30
2022-11-09T10:57:24.906Z,7.70
2022-11-09T11:00:21.778Z,9.03
2022-11-09T11:03:16.421Z,10.60
2022-11-09T11:06:02.518Z,8.73
2022-11-09T11:09:11.019Z,7.60
2022-11-09T11:12:17.406Z,9.50
2022-11-09T11:15:02.647Z,7.57
2022-11-09T11:17:48.257Z,7.90
2022-11-09T11:20:35.912Z,8.80
2022-11-09T11:23:26.064Z,6.30
2022-11-09T11:26:25.647Z,7.33
2022-11-09T11:29:35.920Z,7.23
2022-11-09T11:32:23.124Z,9.97
2022-11-09T11:35:27.122Z,7.53
2022-11-09T11:38:21.721Z,7.00
2022-11-09T11:41:16.592Z,6.83
2022-11-09T11:44:23.736Z,10.27
2022-11-09T11:47:18.974Z,8.10
2022-11-09T11:50:42.107Z,6.53
2022-11-09T11:53:54.544Z,7.40
2022-11-09T11:56:47.854Z,6.33
2022-11-09T12:00:08.527Z,9.13
2022-11-09T12:03:09.212Z,12.90
2022-11-09T12:06:29.817Z,6.17
2022-11-09T12:09:20.743Z,6.50
2022-11-09T12:12:17.348Z,5.60
2022-11-09T12:15:23.917Z,6.10
2022-11-09T12:18:30.949Z,5.50
2022-11-09T12:21:22.995Z,8.80
2022-11-09T12:24:24.069Z,6.40
2022-11-09T12:27:36.329Z,6.47
2022-11-09T12:30:25.971Z,5.53
2022-11-09T12:33:22.313Z,6.10
2022-11-09T12:36:23.076Z,5.57
2022-11-09T12:39:11.660Z,5.30
2022-11-09T12:42:03.819Z,4.20
2022-11-09T12:45:04.387Z,5.07
2022-11-09T12:47:53.081Z,5.47
2022-11-09T12:50:38.943Z,4.50
2022-11-09T12:53:28.587Z,4.47
2022-11-09T12:56:14.098Z,4.10
2022-11-09T12:59:39.928Z,4.70
2022-11-09T13:02:39.014Z,4.23
2022-11-09T13:05:33.527Z,5.13
2022-11-09T13:08:26.419Z,3.90
2022-11-09T13:11:18.083Z,5.83
2022-11-09T13:14:38.048Z,6.00
2022-11-09T13:17:26.196Z,3.90
2022-11-09T13:24:00.812Z,6.00
2022-11-09T13:26:47.650Z,3.70
2022-11-09T13:29:41.761Z,4.20
2022-11-09T13:32:33.491Z,5.40
2022-11-09T13:35:41.029Z,6.13
2022-11-09T13:38:31.074Z,5.23
2022-11-09T13:41:34.494Z,5.53
2022-11-09T13:44:32.545Z,3.57
2022-11-09T13:47:30.517Z,4.23
2022-11-09T13:50:24.190Z,4.60
2022-11-09T13:53:27.709Z,4.30
2022-11-09T13:56:27.211Z,4.87
2022-11-09T13:59:39.164Z,5.93
2022-11-09T14:02:26.256Z,4.23
2022-11-09T14:05:24.803Z,4.80
2022-11-09T14:08:20.619Z,5.07
2022-11-09T14:11:27.994Z,4.27
2022-11-09T14:14:24.776Z,6.40
2022-11-09T14:17:40.664Z,4.60
2022-11-09T14:20:40.892Z,4.70
2022-11-09T14:23:31.461Z,5.10
2022-11-09T14:26:19.681Z,4.47
2022-11-09T14:29:33.163Z,4.07
2022-11-09T14:32:18.144Z,4.13
2022-11-09T14:35:24.871Z,4.83
2022-11-09T14:38:18.409Z,3.00
2022-11-09T14:41:04.325Z,6.17
2022-11-09T14:43:50.513Z,4.30
2022-11-09T14:46:35.494Z,4.50
2022-11-09T14:49:21.640Z,3.70
2022-11-09T14:52:08.530Z,3.60
2022-11-09T14:54:54.399Z,3.47
2022-11-09T14:57:39.937Z,5.07
2022-11-09T15:00:34.409Z,3.10
2022-11-09T15:03:25.369Z,4.03
2022-11-09T15:06:17.919Z,4.00
2022-11-09T15:09:09.413Z,5.13
2022-11-09T15:11:55.086Z,4.93
2022-11-09T15:14:40.513Z,7.60
2022-11-09T15:17:29.358Z,4.23
2022-11-09T15:20:14.362Z,7.03
2022-11-09T15:23:21.185Z,28.97
2022-11-09T15:26:06.490Z,10.43
2022-11-09T15:28:52.461Z,19.47
2022-11-09T15:31:37.368Z,25.83
2022-11-09T15:34:25.429Z,12.83
2022-11-09T15:37:25.929Z,8.30
2022-11-09T15:40:14.324Z,10.17
2022-11-09T15:42:59.343Z,8.30
2022-11-09T15:45:44.541Z,10.20
2022-11-09T15:48:30.238Z,10.03
2022-11-09T15:51:16.306Z,11.50
2022-11-09T15:54:01.170Z,8.50
2022-11-09T15:56:47.133Z,11.67
2022-11-09T15:59:32.444Z,10.47
2022-11-09T16:02:19.229Z,10.17
2022-11-09T16:05:04.537Z,9.47
2022-11-09T16:07:53.659Z,17.83
2022-11-09T16:10:40.316Z,14.53
2022-11-09T16:13:26.036Z,10.43
2022-11-09T16:16:13.276Z,11.87
2022-11-09T16:18:59.377Z,10.47
2022-11-09T16:21:44.539Z,9.13
2022-11-09T16:24:30.067Z,7.80
2022-11-09T16:27:43.040Z,9.87
2022-11-09T16:30:20.823Z,9.87
2022-11-09T16:33:05.842Z,9.20
2022-11-09T16:35:51.088Z,20.50
2022-11-09T16:38:41.461Z,20.73
2022-11-09T16:41:26.744Z,9.73
2022-11-09T16:44:14.401Z,9.00
2022-11-09T16:47:02.398Z,10.37
2022-11-09T16:49:47.439Z,9.83
2022-11-09T16:52:32.836Z,9.33
2022-11-09T16:55:18.140Z,8.77
2022-11-09T16:58:03.505Z,9.13
2022-11-09T17:03:57.082Z,7.90
2022-11-09T17:06:42.089Z,8.57
2022-11-09T17:09:27.388Z,9.27
2022-11-09T17:12:12.697Z,9.20
2022-11-09T17:14:58.291Z,8.97
2022-11-09T17:17:43.708Z,7.63
2022-11-09T17:20:31.417Z,9.90
2022-11-09T17:23:18.830Z,9.80
2022-11-09T17:26:08.116Z,9.03
2022-11-09T17:28:53.697Z,9.13
2022-11-09T17:31:38.945Z,10.27
2022-11-09T17:34:24.178Z,9.70
2022-11-09T17:37:09.379Z,10.33
2022-11-09T17:39:54.512Z,9.10
2022-11-09T17:42:39.939Z,9.60
2022-11-09T17:45:25.612Z,9.57
2022-11-09T17:48:10.896Z,9.07
2022-11-09T17:50:57.611Z,10.83
2022-11-09T17:53:43.038Z,9.67
2022-11-09T17:56:28.407Z,9.93
2022-11-09T17:59:13.842Z,7.90
2022-11-09T18:02:02.933Z,8.43
2022-11-09T18:04:53.825Z,8.37
2022-11-09T18:07:42.224Z,10.60
2022-11-09T18:10:28.232Z,10.83
2022-11-09T18:13:22.576Z,9.23
2022-11-09T18:16:35.897Z,9.10
2022-11-09T18:19:30.996Z,10.23
2022-11-09T18:22:19.434Z,9.13
2022-11-09T18:25:12.409Z,9.40
2022-11-09T18:28:06.595Z,8.47
2022-11-09T18:31:03.444Z,9.90
2022-11-09T18:34:27.536Z,9.57
2022-11-09T18:37:35.848Z,9.67
2022-11-09T18:40:39.887Z,8.43
2022-11-09T18:47:05.509Z,8.63
2022-11-09T18:50:06.863Z,9.03
2022-11-09T18:52:52.200Z,8.87
2022-11-09T18:55:37.334Z,10.63
2022-11-09T18:58:22.904Z,9.80
2022-11-09T19:01:08.665Z,9.50
2022-11-09T19:04:00.372Z,10.57
2022-11-09T19:06:46.471Z,11.70
2022-11-09T19:09:35.539Z,19.47
2022-11-09T19:12:24.313Z,13.67
2022-11-09T19:15:09.719Z,12.67
2022-11-09T19:17:54.619Z,12.93
2022-11-09T19:20:39.930Z,11.47
2022-11-09T19:23:32.846Z,11.80
2022-11-09T19:26:20.461Z,11.53
2022-11-09T19:29:07.503Z,11.20
2022-11-09T19:31:53.044Z,12.60
2022-11-09T19:34:38.385Z,12.97
2022-11-09T19:37:23.629Z,10.13
2022-11-09T19:40:09.703Z,11.23
2022-11-09T19:42:55.198Z,9.70
2022-11-09T19:45:41.896Z,10.33
2022-11-09T19:48:27.177Z,10.20
2022-11-09T19:51:13.894Z,14.70
2022-11-09T19:54:00.362Z,11.90
2022-11-09T19:56:45.762Z,12.03
2022-11-09T19:59:31.228Z,10.20
2022-11-09T20:02:16.677Z,10.60
2022-11-09T20:05:01.979Z,10.73
2022-11-09T20:07:47.392Z,11.77
2022-11-09T20:10:36.860Z,14.03
2022-11-09T20:13:22.679Z,11.63
2022-11-09T20:16:10.282Z,13.47
2022-11-09T20:18:55.475Z,11.13
2022-11-09T20:21:40.894Z,10.43
2022-11-09T20:24:26.042Z,11.63
2022-11-09T20:27:11.255Z,10.27
2022-11-09T20:29:56.686Z,9.10
2022-11-09T20:32:41.759Z,10.57
2022-11-09T20:35:27.165Z,9.47
2022-11-09T20:38:12.339Z,10.47
2022-11-09T20:40:59.438Z,12.00
2022-11-09T20:43:45.004Z,11.00
2022-11-09T20:46:35.491Z,9.80
2022-11-09T20:49:22.220Z,9.47
2022-11-09T20:52:08.000Z,9.23
2022-11-09T20:54:53.438Z,9.57
2022-11-09T20:57:38.825Z,14.03
2022-11-09T21:00:24.732Z,10.70
2022-11-09T21:03:10.144Z,9.70
2022-11-09T21:05:59.150Z,11.30
2022-11-09T21:08:50.536Z,10.20
2022-11-09T21:11:35.828Z,12.30
2022-11-09T21:14:21.069Z,12.07
2022-11-09T21:17:06.381Z,12.87
2022-11-09T21:19:51.501Z,12.07
2022-11-09T21:22:55.411Z,11.70
2022-11-09T21:26:00.783Z,12.93
2022-11-09T21:29:04.405Z,11.60
2022-11-09T21:31:49.800Z,11.87
2022-11-09T21:34:37.020Z,12.10
2022-11-09T21:37:22.817Z,12.93
2022-11-09T21:40:08.810Z,11.37
2022-11-09T21:42:55.558Z,13.43
2022-11-09T21:45:41.573Z,10.23
2022-11-09T21:48:27.189Z,11.77
2022-11-09T21:51:12.621Z,11.90
2022-11-09T21:53:58.144Z,11.33
2022-11-09T21:56:43.431Z,11.43
2022-11-09T21:59:29.039Z,10.03
2022-11-09T22:02:14.056Z,10.17
2022-11-09T22:04:59.416Z,13.60
2022-11-09T22:07:44.692Z,9.70
2022-11-09T22:10:29.925Z,12.60
2022-11-09T22:13:34.224Z,14.87
2022-11-09T22:16:20.852Z,11.10
2022-11-09T22:19:24.933Z,13.70
2022-11-09T22:22:10.186Z,10.50
2022-11-09T22:24:55.367Z,11.80
2022-11-09T22:27:40.492Z,10.40
2022-11-09T22:30:26.012Z,10.37
2022-11-09T22:33:11.391Z,10.73
2022-11-09T22:35:57.895Z,9.27
2022-11-09T22:38:42.851Z,10.70
2022-11-09T22:41:28.130Z,12.00
2022-11-09T22:44:13.415Z,12.17
2022-11-09T22:46:59.106Z,10.07
2022-11-09T22:49:44.461Z,11.67
2022-11-09T22:52:29.663Z,13.87
2022-11-09T22:55:15.066Z,13.80
2022-11-09T22:58:00.384Z,14.00
2022-11-09T23:00:45.776Z,12.37
2022-11-09T23:03:31.153Z,11.10
2022-11-09T23:06:21.790Z,16.13
2022-11-09T23:09:06.979Z,12.17
2022-11-09T23:11:52.435Z,10.80
2022-11-09T23:14:56.205Z,11.90
2022-11-09T23:18:00.121Z,11.80
2022-11-09T23:20:45.638Z,11.93
2022-11-09T23:23:30.904Z,10.40
2022-11-09T23:26:16.892Z,10.80
2022-11-09T23:29:02.049Z,13.17
2022-11-09T23:31:47.374Z,12.80
2022-11-09T23:34:32.777Z,9.77
2022-11-09T23:37:17.946Z,16.40
2022-11-09T23:40:04.416Z,12.40
2022-11-09T23:42:49.326Z,11.93
2022-11-09T23:45:36.324Z,11.47
2022-11-09T23:48:21.378Z,12.60
2022-11-09T23:51:07.742Z,11.70
2022-11-09T23:53:52.883Z,12.10
2022-11-09T23:56:37.971Z,10.63
2022-11-09T23:59:23.338Z,10.53
